Time;durP1;ratioP1;P1;durP2;ratioP2;P2;SDS_P1;SDS_P2;PMS_P1;PMS_P2;Temp;Humidity;BMP_temperature;BMP_pressure;BME280_temperature;BME280_humidity;BME280_pressure;Samples;Min_cycle;Max_cycle;Signal;HPM_P1;HPM_P2
2023/02/13 00:01:22;;;;;;;33.22;15.63;;;2.90;92.10;;;;;;5021907;28;20205;-76
2023/02/13 00:03:48;;;;;;;35.60;14.70;;;2.90;92.10;;;;;;5019086;28;20202;-76
2023/02/13 00:06:14;;;;;;;29.63;14.90;;;2.90;92.10;;;;;;5030201;28;20431;-75
2023/02/13 00:08:39;;;;;;;33.00;15.00;;;2.90;92.10;;;;;;5031813;28;20221;-76
2023/02/13 00:11:05;;;;;;;40.43;15.37;;;2.80;92.00;;;;;;5027561;28;20189;-76
2023/02/13 00:13:33;;;;;;;28.10;14.93;;;2.80;92.00;;;;;;5018009;28;20274;-76
2023/02/13 00:16:01;;;;;;;31.67;15.93;;;2.80;92.20;;;;;;5017112;28;20206;-77
2023/02/13 00:18:27;;;;;;;30.17;15.45;;;2.70;92.20;;;;;;5014939;28;20429;-75
2023/02/13 00:21:01;;;;;;;34.72;17.10;;;2.70;92.30;;;;;;5017297;28;20217;-76
2023/02/13 00:23:29;;;;;;;33.88;16.10;;;2.70;92.50;;;;;;5025304;28;20198;-76
2023/02/13 00:25:55;;;;;;;34.42;15.80;;;2.70;92.50;;;;;;5020413;28;20721;-77
2023/02/13 00:28:20;;;;;;;34.17;15.73;;;2.80;92.50;;;;;;5016155;28;20284;-76
2023/02/13 00:30:46;;;;;;;38.63;16.93;;;2.70;92.30;;;;;;5026746;28;20207;-76
2023/02/13 00:33:11;;;;;;;42.33;18.17;;;2.70;92.30;;;;;;5022194;28;20573;-75
2023/02/13 00:35:37;;;;;;;34.07;15.87;;;2.70;92.40;;;;;;5027624;28;20569;-77
2023/02/13 00:38:03;;;;;;;35.30;16.60;;;2.60;92.50;;;;;;5016794;28;20178;-77
2023/02/13 00:40:28;;;;;;;41.30;16.20;;;2.60;92.50;;;;;;5023406;28;20309;-76
2023/02/13 00:42:54;;;;;;;37.10;15.30;;;2.60;92.50;;;;;;5033992;28;20293;-76
2023/02/13 00:45:19;;;;;;;37.83;16.03;;;2.60;92.50;;;;;;5031688;28;20190;-75
2023/02/13 00:47:45;;;;;;;40.17;16.67;;;2.60;92.60;;;;;;5032252;28;20173;-75
2023/02/13 00:50:10;;;;;;;36.20;16.70;;;2.60;92.70;;;;;;5031054;28;20182;-76
2023/02/13 00:52:36;;;;;;;34.37;15.97;;;2.60;92.70;;;;;;5039648;28;20311;-76
2023/02/13 00:55:01;;;;;;;32.33;15.97;;;2.60;92.70;;;;;;5040322;28;20197;-75
2023/02/13 00:57:29;;;;;;;34.13;16.00;;;2.60;92.70;;;;;;5035786;28;20221;-76
2023/02/13 00:59:55;;;;;;;33.93;14.87;;;2.50;92.60;;;;;;5028362;28;20596;-75
2023/02/13 01:02:20;;;;;;;27.73;13.83;;;2.50;92.60;;;;;;5022566;28;20515;-76
2023/02/13 01:04:46;;;;;;;27.30;14.60;;;2.50;92.40;;;;;;5012658;28;20189;-76
2023/02/13 01:07:11;;;;;;;34.70;15.27;;;2.50;92.20;;;;;;5026052;28;20181;-74
2023/02/13 01:09:37;;;;;;;38.07;16.87;;;2.40;92.00;;;;;;5024355;28;20528;-76
2023/02/13 01:12:03;;;;;;;28.67;15.00;;;2.40;91.90;;;;;;5028426;28;20197;-75
2023/02/13 01:14:28;;;;;;;37.27;15.87;;;2.30;91.90;;;;;;5027184;28;20297;-75
2023/02/13 01:16:54;;;;;;;39.17;17.97;;;2.30;92.10;;;;;;5030452;28;20273;-76
2023/02/13 01:19:19;;;;;;;37.93;16.10;;;2.30;92.30;;;;;;5034006;28;20671;-76
2023/02/13 01:21:45;;;;;;;35.73;15.20;;;2.30;92.40;;;;;;5025004;28;20508;-76
2023/02/13 01:24:10;;;;;;;39.00;17.20;;;2.40;92.40;;;;;;5017864;28;20208;-77
2023/02/13 01:26:36;;;;;;;39.23;17.50;;;2.30;92.30;;;;;;5023000;28;20185;-76
2023/02/13 01:29:02;;;;;;;39.83;17.07;;;2.40;92.40;;;;;;5022882;28;20193;-76
2023/02/13 01:31:27;;;;;;;36.23;15.97;;;2.30;92.30;;;;;;5020891;28;20178;-76
2023/02/13 01:33:56;;;;;;;33.87;15.70;;;2.30;92.30;;;;;;5022652;28;20716;-75
2023/02/13 01:36:23;;;;;;;40.22;17.40;;;2.30;92.30;;;;;;5037495;28;20213;-76
2023/02/13 01:38:53;;;;;;;42.43;17.47;;;2.30;92.30;;;;;;5045776;28;20201;-75
2023/02/13 01:41:18;;;;;;;37.60;16.42;;;2.30;92.30;;;;;;5048204;28;20416;-76
2023/02/13 01:43:49;;;;;;;37.23;17.83;;;2.30;92.40;;;;;;5026252;28;20218;-76
2023/02/13 01:46:20;;;;;;;43.10;17.27;;;2.30;92.40;;;;;;5029316;28;20173;-76
2023/02/13 01:48:47;;;;;;;37.33;16.30;;;2.30;92.40;;;;;;5022709;28;20453;-77
2023/02/13 01:51:18;;;;;;;36.08;15.40;;;2.20;92.50;;;;;;5028564;28;20233;-77
2023/02/13 01:54:12;;;;;;;40.53;16.53;;;2.20;92.60;;;;;;5036652;28;20217;-76
2023/02/13 01:56:41;;;;;;;34.53;15.77;;;2.20;92.60;;;;;;5010078;28;20465;-77
2023/02/13 01:59:12;;;;;;;39.33;16.15;;;2.20;92.70;;;;;;5015916;28;20436;-75
2023/02/13 02:01:38;;;;;;;37.13;16.08;;;2.20;92.80;;;;;;5022544;28;20225;-77
2023/02/13 02:04:31;;;;;;;36.20;15.48;;;2.20;92.60;;;;;;5014999;28;20321;-77
2023/02/13 02:07:00;;;;;;;36.47;15.53;;;2.10;92.40;;;;;;5015216;28;20181;-77
2023/02/13 02:09:30;;;;;;;35.55;15.07;;;2.10;92.10;;;;;;5016437;28;20459;-76
2023/02/13 02:12:21;;;;;;;35.10;15.75;;;2.10;92.00;;;;;;5017264;28;20251;-77
2023/02/13 02:14:48;;;;;;;32.20;14.55;;;2.00;92.00;;;;;;5013753;28;20245;-77
2023/02/13 02:17:13;;;;;;;44.08;18.58;;;2.00;92.00;;;;;;5025781;28;20210;-77
2023/02/13 02:19:58;;;;;;;37.43;17.10;;;2.00;92.20;;;;;;5015376;28;20251;-77
2023/02/13 02:22:54;;;;;;;33.92;16.23;;;2.00;92.40;;;;;;5010021;28;20254;-77
2023/02/13 02:25:46;;;;;;;39.50;17.10;;;2.00;92.50;;;;;;5012023;28;20182;-77
2023/02/13 02:28:49;;;;;;;35.53;16.30;;;1.90;92.60;;;;;;5022546;28;20240;-76
2023/02/13 02:31:41;;;;;;;38.85;16.98;;;1.90;92.60;;;;;;5015825;28;20288;-76
2023/02/13 02:34:35;;;;;;;40.15;17.00;;;1.90;92.70;;;;;;5004655;28;20204;-76
2023/02/13 02:37:38;;;;;;;33.60;15.18;;;1.90;92.80;;;;;;5004861;28;20217;-77
2023/02/13 02:40:29;;;;;;;46.45;18.80;;;1.90;92.80;;;;;;5017199;28;20193;-75
2023/02/13 02:43:24;;;;;;;43.22;16.15;;;1.90;92.70;;;;;;5011172;28;20218;-77
2023/02/13 02:46:07;;;;;;;41.15;16.70;;;1.80;92.80;;;;;;5017732;28;20182;-77
2023/02/13 02:51:57;;;;;;;48.17;16.90;;;1.80;92.80;;;;;;5022310;28;20734;-75
2023/02/13 02:57:19;;;;;;;40.15;17.48;;;1.80;93.00;;;;;;5026434;28;20204;-76
2023/02/13 03:08:11;;;;;;;42.05;18.73;;;1.90;93.00;;;;;;5024990;28;20189;-76
2023/02/13 03:13:45;;;;;;;39.75;16.40;;;1.70;92.70;;;;;;5017777;28;20258;-75
2023/02/13 03:24:51;;;;;;;35.22;15.10;;;1.50;92.10;;;;;;5022089;28;20240;-75
2023/02/13 03:30:05;;;;;;;45.83;17.50;;;1.50;92.10;;;;;;5020045;28;20193;-76
2023/02/13 03:30:34;;;;;;;40.72;17.25;;;1.50;92.20;;;;;;5010890;28;20182;-76
2023/02/13 03:33:15;;;;;;;39.38;15.98;;;1.50;92.30;;;;;;5018544;28;20206;-75
2023/02/13 03:38:56;;;;;;;36.17;16.38;;;1.50;92.40;;;;;;5010844;28;20277;-75
2023/02/13 03:41:31;;;;;;;40.25;18.55;;;1.50;92.40;;;;;;5017940;28;20213;-76
2023/02/13 03:44:20;;;;;;;34.27;16.03;;;1.50;92.40;;;;;;5010926;28;20698;-75
2023/02/13 03:46:49;;;;;;;43.58;17.40;;;1.50;92.50;;;;;;5014582;28;20425;-76
2023/02/13 03:52:14;;;;;;;42.20;16.58;;;1.50;92.50;;;;;;5018716;28;20224;-75
2023/02/13 04:00:57;;;;;;;40.17;16.58;;;1.50;92.30;;;;;;5024981;28;20247;-76
2023/02/13 04:03:34;;;;;;;50.05;21.75;;;1.40;92.20;;;;;;5009844;28;20702;-76
2023/02/13 04:06:12;;;;;;;42.85;17.50;;;1.40;92.10;;;;;;5023067;28;20212;-77
2023/02/13 04:08:38;;;;;;;41.13;16.88;;;1.30;92.20;;;;;;5018648;28;20200;-77
2023/02/13 04:11:09;;;;;;;38.80;17.97;;;1.30;92.30;;;;;;5016819;28;20663;-76
2023/02/13 04:13:42;;;;;;;44.78;16.90;;;1.40;92.40;;;;;;5012344;28;20217;-77
2023/02/13 04:16:16;;;;;;;42.53;18.25;;;1.40;92.30;;;;;;5020040;28;20210;-77
2023/02/13 04:18:43;;;;;;;45.55;18.80;;;1.40;92.30;;;;;;5028826;28;20186;-76
2023/02/13 04:21:08;;;;;;;42.83;17.50;;;1.40;92.40;;;;;;5021543;28;20266;-75
2023/02/13 04:23:34;;;;;;;39.77;17.27;;;1.40;92.40;;;;;;5013616;28;20225;-76
2023/02/13 04:26:05;;;;;;;40.40;18.60;;;1.40;92.30;;;;;;5031741;28;20193;-77
2023/02/13 04:28:30;;;;;;;45.25;18.00;;;1.40;92.20;;;;;;5021674;28;20344;-75
2023/02/13 04:30:56;;;;;;;42.30;17.27;;;1.40;92.10;;;;;;5034518;28;20210;-77
2023/02/13 04:33:22;;;;;;;45.83;17.07;;;1.40;92.10;;;;;;5022165;28;20570;-76
2023/02/13 04:35:48;;;;;;;51.83;19.50;;;1.40;92.20;;;;;;5026318;28;20212;-77
2023/02/13 04:38:13;;;;;;;45.70;18.37;;;1.30;92.20;;;;;;5025945;28;20672;-74
2023/02/13 04:40:39;;;;;;;44.20;18.23;;;1.40;92.30;;;;;;5020935;28;20206;-76
2023/02/13 04:43:04;;;;;;;46.50;17.90;;;1.40;92.40;;;;;;5020174;28;20209;-76
2023/02/13 04:45:30;;;;;;;43.97;17.50;;;1.40;92.40;;;;;;5032152;28;20185;-75
2023/02/13 04:47:56;;;;;;;45.53;18.90;;;1.40;92.50;;;;;;5031912;28;20189;-75
2023/02/13 04:50:23;;;;;;;42.88;18.50;;;1.40;92.60;;;;;;5019330;28;20610;-75
2023/02/13 04:52:57;;;;;;;39.97;16.85;;;1.50;92.60;;;;;;5017392;28;20308;-76
2023/02/13 04:55:24;;;;;;;44.22;18.90;;;1.50;92.60;;;;;;5027908;28;20186;-76
2023/02/13 04:57:53;;;;;;;50.97;18.27;;;1.50;92.70;;;;;;5033192;28;20186;-76
2023/02/13 05:00:21;;;;;;;41.83;18.40;;;1.60;92.70;;;;;;5034912;28;20198;-75
2023/02/13 05:02:46;;;;;;;49.17;18.67;;;1.50;92.80;;;;;;5037390;28;20305;-75
2023/02/13 05:05:12;;;;;;;50.63;20.93;;;1.50;92.80;;;;;;5041079;28;20190;-75
2023/02/13 05:07:37;;;;;;;44.77;19.37;;;1.50;92.70;;;;;;5035870;28;20185;-75
2023/02/13 05:10:04;;;;;;;48.83;19.60;;;1.40;92.60;;;;;;5041251;28;20187;-76
2023/02/13 05:12:29;;;;;;;39.83;17.17;;;1.40;92.70;;;;;;5033086;28;20196;-76
2023/02/13 05:14:55;;;;;;;58.27;20.40;;;1.40;92.70;;;;;;5012519;28;20197;-78
2023/02/13 05:17:20;;;;;;;48.30;19.80;;;1.40;92.70;;;;;;5018603;28;20252;-76
2023/02/13 05:19:46;;;;;;;50.97;20.30;;;1.30;92.70;;;;;;5015782;28;20189;-77
2023/02/13 05:24:56;;;;;;;40.58;17.45;;;1.30;92.80;;;;;;5022249;28;20195;-75
2023/02/13 05:27:21;;;;;;;43.10;19.30;;;1.40;93.00;;;;;;5023824;28;20843;-76
2023/02/13 05:29:47;;;;;;;38.83;18.23;;;1.40;93.00;;;;;;5018738;28;20193;-76
2023/02/13 05:32:12;;;;;;;42.97;18.70;;;1.40;93.10;;;;;;5026275;28;20720;-75
2023/02/13 05:34:38;;;;;;;51.80;19.53;;;1.40;93.00;;;;;;5018635;28;20674;-77
2023/02/13 05:37:03;;;;;;;53.60;20.03;;;1.40;93.10;;;;;;5020348;28;20210;-76
2023/02/13 05:39:29;;;;;;;55.20;21.20;;;1.40;93.10;;;;;;5017288;28;20180;-76
2023/02/13 05:41:55;;;;;;;53.67;19.40;;;1.40;93.20;;;;;;5013227;28;20567;-77
2023/02/13 05:44:20;;;;;;;50.43;19.77;;;1.40;93.10;;;;;;5017795;28;20206;-77
2023/02/13 05:46:46;;;;;;;37.87;17.53;;;1.40;93.20;;;;;;5015971;28;20197;-78
2023/02/13 05:49:13;;;;;;;52.37;21.00;;;1.30;93.10;;;;;;5016477;28;20673;-78
2023/02/13 05:51:38;;;;;;;48.72;20.85;;;1.20;93.00;;;;;;5014564;28;20186;-77
2023/02/13 05:54:04;;;;;;;53.37;19.83;;;1.20;93.10;;;;;;5021262;28;20240;-80
2023/02/13 05:56:30;;;;;;;48.10;20.13;;;1.30;93.20;;;;;;5031289;28;20217;-78
2023/02/13 05:58:56;;;;;;;48.00;20.20;;;1.30;93.20;;;;;;5019058;28;20320;-79
2023/02/13 06:01:23;;;;;;;44.25;18.33;;;1.30;93.20;;;;;;5022108;28;20205;-80
2023/02/13 06:03:49;;;;;;;56.28;22.00;;;1.30;93.30;;;;;;5021135;28;20556;-80
2023/02/13 06:06:15;;;;;;;52.75;21.30;;;1.30;93.20;;;;;;5017686;28;20178;-80
2023/02/13 06:08:40;;;;;;;48.53;18.97;;;1.20;93.20;;;;;;5026696;28;20178;-81
2023/02/13 06:11:06;;;;;;;53.83;21.77;;;1.20;93.30;;;;;;5023038;28;20435;-80
2023/02/13 06:13:32;;;;;;;51.93;21.97;;;1.20;93.20;;;;;;5015519;28;20205;-74
2023/02/13 06:15:57;;;;;;;53.63;21.50;;;1.20;93.30;;;;;;5023298;28;20202;-76
2023/02/13 06:18:23;;;;;;;55.40;22.67;;;1.10;93.30;;;;;;5021812;28;20181;-76
2023/02/13 06:20:48;;;;;;;54.07;21.30;;;1.20;93.40;;;;;;5014470;28;20174;-75
2023/02/13 06:23:14;;;;;;;53.30;20.83;;;1.20;93.50;;;;;;5015863;28;20310;-76
2023/02/13 06:25:40;;;;;;;52.70;19.67;;;1.10;93.50;;;;;;5017366;28;20186;-75
2023/02/13 06:28:06;;;;;;;46.57;18.67;;;1.20;93.50;;;;;;5010319;28;20429;-75
2023/02/13 06:30:32;;;;;;;68.60;22.30;;;1.10;93.40;;;;;;5018001;28;20572;-75
2023/02/13 06:32:58;;;;;;;58.72;20.25;;;1.10;93.30;;;;;;5011370;28;20209;-75
2023/02/13 06:35:24;;;;;;;54.03;21.77;;;1.10;93.20;;;;;;5012958;28;20185;-74
2023/02/13 06:37:50;;;;;;;46.93;19.83;;;1.00;93.30;;;;;;5018872;28;20506;-74
2023/02/13 06:40:16;;;;;;;56.37;19.07;;;1.10;93.40;;;;;;5025022;28;20424;-76
2023/02/13 06:42:43;;;;;;;46.72;19.70;;;1.10;93.40;;;;;;5036721;28;20290;-76
2023/02/13 06:45:09;;;;;;;53.85;22.83;;;1.10;93.50;;;;;;5035880;28;20173;-75
2023/02/13 06:47:35;;;;;;;50.33;21.42;;;1.10;93.50;;;;;;5024468;28;20190;-76
2023/02/13 06:50:00;;;;;;;57.43;23.03;;;1.10;93.50;;;;;;5012965;28;20296;-76
2023/02/13 06:52:26;;;;;;;44.57;21.10;;;1.20;93.50;;;;;;5020843;28;20193;-76
2023/02/13 06:54:52;;;;;;;45.38;20.65;;;1.20;93.50;;;;;;5018490;28;20190;-74
2023/02/13 06:57:18;;;;;;;60.73;23.87;;;1.20;93.60;;;;;;5014573;28;20263;-74
2023/02/13 06:59:43;;;;;;;45.80;19.67;;;1.30;93.60;;;;;;5016491;28;20185;-75
2023/02/13 07:02:10;;;;;;;55.57;20.47;;;1.30;93.50;;;;;;5018702;28;20186;-75
2023/02/13 07:04:36;;;;;;;42.40;19.42;;;1.30;93.50;;;;;;5011368;28;20198;-75
2023/02/13 07:07:01;;;;;;;55.83;21.67;;;1.40;93.50;;;;;;5018573;28;20197;-76
2023/02/13 07:09:27;;;;;;;55.70;21.93;;;1.40;93.40;;;;;;5015726;28;20188;-75
2023/02/13 07:11:54;;;;;;;53.05;21.55;;;1.50;93.40;;;;;;5018203;28;20297;-75
2023/02/13 07:14:19;;;;;;;54.40;21.30;;;1.50;93.30;;;;;;5017182;28;20282;-76
2023/02/13 07:16:45;;;;;;;50.37;21.53;;;1.50;93.20;;;;;;5013200;28;20218;-75
2023/02/13 07:19:10;;;;;;;55.10;22.20;;;1.50;93.20;;;;;;5011935;28;20641;-76
2023/02/13 07:21:36;;;;;;;57.50;23.10;;;1.60;93.20;;;;;;5017040;28;20594;-75
2023/02/13 07:24:03;;;;;;;59.60;22.70;;;1.60;93.10;;;;;;5015107;28;20217;-76
2023/02/13 07:26:28;;;;;;;55.10;23.23;;;1.60;92.90;;;;;;5018980;28;20424;-75
2023/02/13 07:28:54;;;;;;;58.93;23.43;;;1.60;92.90;;;;;;5024618;28;20271;-74
2023/02/13 07:31:19;;;;;;;55.13;23.10;;;1.60;92.80;;;;;;5023539;28;20573;-74
2023/02/13 07:33:48;;;;;;;55.83;21.93;;;1.60;92.50;;;;;;5019041;28;20210;-76
2023/02/13 07:36:14;;;;;;;51.45;22.50;;;1.70;92.50;;;;;;5028298;28;20277;-76
2023/02/13 07:38:39;;;;;;;46.40;21.60;;;1.70;92.30;;;;;;5027394;28;20178;-76
2023/02/13 07:41:05;;;;;;;60.37;22.00;;;1.80;92.20;;;;;;5022783;28;20186;-75
2023/02/13 07:43:31;;;;;;;55.53;22.20;;;1.80;92.10;;;;;;5018493;28;20206;-76
2023/02/13 07:46:01;;;;;;;57.17;23.90;;;1.80;92.10;;;;;;5021026;28;20191;-75
2023/02/13 07:48:27;;;;;;;52.60;22.33;;;1.90;91.90;;;;;;5024005;28;20471;-76
2023/02/13 07:50:54;;;;;;;54.73;23.83;;;2.00;91.80;;;;;;5022687;28;20444;-75
2023/02/13 07:53:21;;;;;;;55.20;23.17;;;2.00;91.60;;;;;;5019362;28;20978;-75
2023/02/13 07:55:47;;;;;;;52.53;23.52;;;2.10;91.50;;;;;;5028300;28;20316;-75
2023/02/13 07:58:12;;;;;;;55.03;23.40;;;2.20;91.40;;;;;;5019894;28;20287;-75
2023/02/13 08:00:38;;;;;;;53.50;22.07;;;2.20;91.30;;;;;;5027880;28;20296;-74
2023/02/13 08:03:03;;;;;;;51.70;22.73;;;2.20;91.20;;;;;;5025268;28;20349;-75
2023/02/13 08:05:31;;;;;;;51.20;21.60;;;2.20;91.00;;;;;;5023179;28;20193;-76
2023/02/13 08:07:56;;;;;;;53.65;21.50;;;2.20;91.10;;;;;;5021746;28;20197;-75
2023/02/13 08:13:07;;;;;;;48.70;22.40;;;2.30;91.20;;;;;;5021701;28;20224;-76
2023/02/13 08:15:33;;;;;;;52.33;22.20;;;2.30;91.20;;;;;;5019115;28;20425;-76
2023/02/13 08:17:59;;;;;;;62.27;23.20;;;2.40;91.20;;;;;;5019002;28;20186;-75
2023/02/13 08:20:24;;;;;;;43.43;19.80;;;2.40;91.20;;;;;;5014845;28;20182;-75
2023/02/13 08:22:50;;;;;;;61.60;24.63;;;2.50;91.10;;;;;;5023469;28;20205;-75
2023/02/13 08:25:16;;;;;;;44.73;20.90;;;2.60;90.90;;;;;;5023230;28;20198;-76
2023/02/13 08:27:41;;;;;;;49.90;22.70;;;2.60;90.80;;;;;;5020088;28;20533;-76
2023/02/13 08:30:08;;;;;;;53.97;23.60;;;2.70;90.70;;;;;;5024039;28;20247;-76
2023/02/13 08:32:34;;;;;;;52.03;22.70;;;2.70;90.60;;;;;;5024350;28;20574;-75
2023/02/13 08:34:59;;;;;;;53.57;23.80;;;2.70;90.50;;;;;;5030650;28;20428;-75
2023/02/13 08:37:25;;;;;;;47.00;20.20;;;2.80;90.40;;;;;;5022880;28;20689;-73
2023/02/13 08:39:50;;;;;;;56.63;22.17;;;2.80;90.40;;;;;;5025720;28;20186;-74
2023/02/13 08:42:16;;;;;;;53.53;21.90;;;2.80;90.30;;;;;;5020295;28;20185;-76
2023/02/13 08:44:42;;;;;;;50.57;23.00;;;2.90;90.30;;;;;;5027857;28;20182;-74
2023/02/13 08:47:08;;;;;;;48.00;19.70;;;3.00;90.20;;;;;;5032806;28;20216;-76
2023/02/13 08:49:33;;;;;;;50.10;22.00;;;3.00;90.10;;;;;;5015531;28;20198;-77
2023/02/13 08:52:00;;;;;;;51.70;22.33;;;3.10;90.00;;;;;;5016728;28;20432;-74
2023/02/13 08:54:26;;;;;;;43.03;22.23;;;3.20;89.90;;;;;;5026196;28;20232;-75
2023/02/13 08:56:53;;;;;;;53.27;22.27;;;3.30;89.90;;;;;;5033007;28;20465;-74
2023/02/13 08:59:19;;;;;;;147.80;62.33;;;3.30;89.70;;;;;;5024328;28;20436;-76
2023/02/13 09:01:44;;;;;;;49.07;21.30;;;3.40;89.60;;;;;;5024492;28;20429;-77
2023/02/13 09:04:10;;;;;;;48.17;20.33;;;3.50;89.50;;;;;;5023361;28;20504;-75
2023/02/13 09:06:35;;;;;;;52.77;22.20;;;3.60;89.30;;;;;;5026228;28;20185;-76
2023/02/13 09:09:03;;;;;;;44.10;20.10;;;3.70;89.20;;;;;;5025956;28;20190;-75
2023/02/13 09:11:29;;;;;;;41.33;19.10;;;3.70;89.20;;;;;;5023480;28;20174;-76
2023/02/13 09:13:54;;;;;;;51.50;25.30;;;3.90;88.60;;;;;;5008692;28;20959;-74
2023/02/13 09:16:20;;;;;;;42.23;19.50;;;3.90;87.80;;;;;;5033656;28;20212;-75
2023/02/13 09:18:47;;;;;;;31.80;15.70;;;3.90;87.70;;;;;;5028751;28;20189;-76
2023/02/13 09:21:13;;;;;;;29.23;13.83;;;4.00;87.80;;;;;;5034234;28;20424;-78
2023/02/13 09:23:39;;;;;;;29.70;14.03;;;4.10;87.80;;;;;;5030590;28;20448;-75
2023/02/13 09:26:10;;;;;;;32.87;15.60;;;4.10;87.10;;;;;;5036408;28;20253;-75
2023/02/13 09:28:36;;;;;;;29.20;14.27;;;4.20;86.90;;;;;;4999973;28;20406;-75
2023/02/13 09:31:10;;;;;;;29.30;13.47;;;4.40;86.60;;;;;;5010545;28;20413;-75
2023/02/13 09:33:36;;;;;;;31.70;15.27;;;4.40;86.20;;;;;;5012146;28;20459;-76
2023/02/13 09:36:07;;;;;;;33.00;13.70;;;4.50;85.70;;;;;;5020546;28;20464;-75
2023/02/13 09:38:33;;;;;;;30.60;14.27;;;4.50;85.30;;;;;;5004377;28;20416;-73
2023/02/13 09:41:06;;;;;;;30.33;13.67;;;4.60;85.30;;;;;;5014195;28;20474;-78
2023/02/13 09:43:43;;;;;;;27.50;14.53;;;4.70;84.60;;;;;;5013723;28;20476;-76
2023/02/13 09:46:19;;;;;;;25.60;13.80;;;4.90;84.30;;;;;;5020313;28;20494;-76
2023/02/13 09:48:50;;;;;;;30.10;14.07;;;4.90;83.80;;;;;;5029709;28;20411;-75
2023/02/13 09:51:18;;;;;;;29.17;12.50;;;5.00;83.80;;;;;;5016504;28;20457;-77
2023/02/13 09:53:58;;;;;;;31.10;14.17;;;5.20;83.80;;;;;;5017909;28;20464;-74
2023/02/13 09:56:34;;;;;;;30.40;14.00;;;5.40;83.00;;;;;;5013453;28;20476;-75
2023/02/13 09:59:07;;;;;;;28.07;13.90;;;5.40;82.40;;;;;;5010746;28;20428;-74
2023/02/13 10:01:47;;;;;;;27.40;13.00;;;5.50;82.20;;;;;;5011173;28;20445;-74
2023/02/13 10:04:28;;;;;;;26.90;14.00;;;5.60;81.50;;;;;;5013371;28;20513;-76
2023/02/13 10:07:03;;;;;;;32.20;15.37;;;5.70;81.20;;;;;;5019328;28;20540;-76
2023/02/13 10:09:38;;;;;;;32.90;14.27;;;5.70;80.90;;;;;;5013578;28;20451;-75
2023/02/13 10:12:19;;;;;;;32.40;14.00;;;5.70;81.20;;;;;;5013508;28;20567;-75
2023/02/13 10:15:05;;;;;;;33.00;15.93;;;5.80;80.90;;;;;;5018290;28;20436;-75
2023/02/13 10:17:58;;;;;;;30.37;15.47;;;5.90;80.80;;;;;;5010250;28;20846;-76
2023/02/13 10:20:33;;;;;;;30.93;14.83;;;6.00;80.50;;;;;;5020174;28;20948;-77
2023/02/13 10:23:18;;;;;;;24.50;14.00;;;6.10;79.90;;;;;;5029005;28;20445;-75
2023/02/13 10:26:04;;;;;;;29.83;13.53;;;6.20;79.60;;;;;;5022767;28;20475;-75
2023/02/13 10:31:44;;;;;;;27.03;12.80;;;6.30;79.50;;;;;;5010223;28;20448;-75
2023/02/13 10:34:14;;;;;;;24.50;13.37;;;6.40;79.20;;;;;;5013157;28;20507;-75
2023/02/13 10:36:45;;;;;;;25.47;12.50;;;6.50;78.90;;;;;;5017901;28;20594;-76
2023/02/13 10:39:22;;;;;;;26.43;12.87;;;6.60;78.30;;;;;;5033900;28;20432;-76
2023/02/13 10:41:57;;;;;;;26.83;12.80;;;6.80;77.70;;;;;;5025241;28;20440;-75
2023/02/13 10:44:33;;;;;;;23.63;11.33;;;7.10;77.40;;;;;;5024833;28;20560;-76
2023/02/13 10:47:40;;;;;;;24.63;13.77;;;7.30;76.70;;;;;;5024850;28;20427;-74
2023/02/13 10:50:26;;;;;;;23.30;12.37;;;7.70;75.90;;;;;;5029377;28;20415;-74
2023/02/13 10:53:19;;;;;;;19.93;11.63;;;8.30;74.20;;;;;;5017478;28;20527;-74
2023/02/13 10:55:56;;;;;;;16.70;9.77;;;9.00;72.60;;;;;;5008652;28;20476;-75
2023/02/13 10:58:28;;;;;;;18.20;9.10;;;9.70;70.70;;;;;;5021302;28;20485;-73
2023/02/13 11:01:31;;;;;;;20.30;9.97;;;9.90;68.60;;;;;;5019556;28;20446;-75
2023/02/13 11:04:23;;;;;;;17.70;9.93;;;10.20;68.50;;;;;;5010665;28;20483;-75
2023/02/13 11:06:58;;;;;;;21.03;10.13;;;10.50;67.00;;;;;;5011686;28;20429;-77
2023/02/13 11:09:24;;;;;;;19.03;10.33;;;10.40;66.60;;;;;;5017089;28;20771;-76
2023/02/13 11:11:50;;;;;;;17.57;9.23;;;10.50;66.90;;;;;;5024071;28;20443;-75
2023/02/13 11:14:24;;;;;;;15.47;8.93;;;10.60;66.00;;;;;;5015958;28;20444;-74
2023/02/13 11:16:57;;;;;;;17.83;8.90;;;10.70;66.00;;;;;;5021001;28;20493;-77
2023/02/13 11:19:26;;;;;;;17.30;9.73;;;11.00;64.50;;;;;;5020775;28;20508;-76
2023/02/13 11:22:03;;;;;;;18.13;9.47;;;10.70;64.10;;;;;;5030543;28;20434;-75
2023/02/13 11:24:30;;;;;;;15.00;8.97;;;10.60;64.80;;;;;;5024514;28;20498;-76
2023/02/13 11:27:07;;;;;;;14.60;8.33;;;10.60;65.30;;;;;;5024356;28;20498;-76
2023/02/13 11:29:35;;;;;;;16.37;9.40;;;10.80;64.20;;;;;;5017523;28;20541;-74
2023/02/13 11:32:22;;;;;;;15.57;8.80;;;10.70;63.90;;;;;;5028325;28;20791;-76
2023/02/13 11:34:53;;;;;;;19.23;9.30;;;10.50;64.20;;;;;;5030284;28;20471;-77
2023/02/13 11:37:37;;;;;;;16.30;8.60;;;10.50;64.10;;;;;;5035652;28;20508;-75
2023/02/13 11:40:28;;;;;;;12.60;8.27;;;10.50;64.40;;;;;;5029976;28;20497;-76
2023/02/13 11:42:54;;;;;;;16.23;8.60;;;10.70;63.80;;;;;;5025968;28;20465;-73
2023/02/13 11:45:23;;;;;;;23.07;11.10;;;10.70;63.70;;;;;;5029084;28;20439;-76
2023/02/13 11:47:49;;;;;;;18.70;9.40;;;10.80;64.20;;;;;;5037280;28;20199;-75
2023/02/13 11:50:41;;;;;;;15.27;8.83;;;11.20;63.80;;;;;;5029280;28;20978;-75
2023/02/13 11:53:20;;;;;;;19.33;8.30;;;11.70;61.70;;;;;;5004593;28;20305;-77
2023/02/13 11:56:26;;;;;;;13.77;7.97;;;12.10;60.90;;;;;;5019340;28;20428;-75
2023/02/13 11:59:01;;;;;;;14.40;9.07;;;12.50;59.50;;;;;;5018566;28;20433;-75
2023/02/13 12:01:28;;;;;;;15.80;9.13;;;12.50;59.20;;;;;;5019143;28;20535;-76
2023/02/13 12:04:16;;;;;;;21.83;10.40;;;12.60;59.10;;;;;;5010284;28;20617;-75
2023/02/13 12:07:20;;;;;;;18.27;10.27;;;12.90;58.90;;;;;;5008016;28;20442;-75
2023/02/13 12:10:00;;;;;;;16.30;10.30;;;13.10;57.30;;;;;;5008230;28;20428;-76
2023/02/13 12:12:57;;;;;;;14.63;8.97;;;13.10;57.30;;;;;;5023175;28;20793;-77
2023/02/13 12:15:29;;;;;;;15.70;9.07;;;13.00;57.00;;;;;;5015914;28;20419;-74
2023/02/13 12:18:09;;;;;;;12.60;8.27;;;12.70;57.30;;;;;;5022991;28;20447;-75
2023/02/13 12:20:40;;;;;;;14.97;9.13;;;12.40;58.20;;;;;;5021892;28;20440;-74
2023/02/13 12:23:27;;;;;;;14.00;9.47;;;12.20;59.10;;;;;;5013210;28;20529;-75
2023/02/13 12:26:18;;;;;;;18.80;9.80;;;12.20;59.50;;;;;;5011425;28;20420;-75
2023/02/13 12:29:17;;;;;;;18.53;10.20;;;12.00;59.70;;;;;;5015641;28;20916;-76
2023/02/13 12:32:00;;;;;;;19.87;10.60;;;11.90;60.60;;;;;;5030386;28;20436;-74
2023/02/13 12:34:27;;;;;;;18.83;10.43;;;11.40;62.20;;;;;;5021734;28;20465;-76
2023/02/13 12:37:20;;;;;;;17.27;10.60;;;11.40;63.10;;;;;;5026743;28;20482;-76
2023/02/13 12:39:52;;;;;;;20.53;11.47;;;11.80;62.80;;;;;;5015560;28;20502;-74
2023/02/13 12:42:25;;;;;;;16.87;10.70;;;12.10;61.30;;;;;;5023746;28;20470;-74
2023/02/13 12:45:13;;;;;;;20.73;11.07;;;12.40;60.70;;;;;;5026163;28;20472;-75
2023/02/13 12:48:23;;;;;;;18.67;11.50;;;12.50;59.70;;;;;;5017285;28;20417;-77
2023/02/13 12:50:57;;;;;;;23.13;11.80;;;12.50;59.60;;;;;;5015887;28;20417;-75
2023/02/13 12:53:34;;;;;;;16.37;10.30;;;12.50;60.10;;;;;;5010075;28;20819;-74
2023/02/13 12:56:24;;;;;;;17.97;9.57;;;12.70;59.10;;;;;;5024265;28;20466;-74
2023/02/13 12:59:02;;;;;;;17.87;9.57;;;12.90;58.00;;;;;;5017384;28;21193;-75
2023/02/13 13:01:53;;;;;;;21.00;10.57;;;12.90;58.40;;;;;;5013538;28;20449;-75
2023/02/13 13:04:19;;;;;;;16.33;10.60;;;13.00;58.10;;;;;;5009247;28;20461;-77
2023/02/13 13:07:19;;;;;;;21.80;11.10;;;12.90;58.00;;;;;;5018838;28;21112;-75
2023/02/13 13:10:03;;;;;;;17.40;10.00;;;12.80;57.80;;;;;;5015504;28;20253;-78
2023/02/13 13:12:40;;;;;;;14.57;10.10;;;12.60;58.00;;;;;;5026533;28;20420;-77
2023/02/13 13:15:32;;;;;;;17.67;9.93;;;12.40;58.70;;;;;;5029126;28;20537;-76
2023/02/13 13:18:17;;;;;;;18.70;10.10;;;12.40;59.10;;;;;;5015031;28;20448;-77
2023/02/13 13:20:54;;;;;;;21.10;10.70;;;12.50;59.20;;;;;;5037919;28;20442;-76
2023/02/13 13:23:32;;;;;;;19.60;11.07;;;12.50;59.50;;;;;;5025755;28;20491;-76
2023/02/13 13:26:07;;;;;;;19.30;9.90;;;12.70;58.90;;;;;;5009934;28;20482;-74
2023/02/13 13:28:47;;;;;;;19.07;11.27;;;12.80;58.50;;;;;;5013891;28;20423;-78
2023/02/13 13:31:13;;;;;;;20.13;10.90;;;12.70;58.70;;;;;;5011865;28;20416;-77
2023/02/13 13:33:45;;;;;;;17.90;10.50;;;12.60;59.10;;;;;;5008926;28;20464;-77
2023/02/13 13:36:18;;;;;;;18.93;10.17;;;12.50;59.50;;;;;;5012125;28;20475;-74
2023/02/13 13:38:50;;;;;;;16.23;9.53;;;12.50;59.60;;;;;;5012191;28;20519;-76
2023/02/13 13:41:43;;;;;;;18.40;11.00;;;12.60;58.80;;;;;;5019859;28;20428;-78
2023/02/13 13:45:03;;;;;;;20.57;11.13;;;12.50;59.20;;;;;;5006569;28;20460;-76
2023/02/13 13:47:28;;;;;;;19.47;10.50;;;12.50;58.90;;;;;;4968570;28;20438;-77